RoSS Sea — WDE3122 — position and weather

sailwx.info

Track history (hours):
 
Tides and Currents Weather Stations Pressure Air Temp Water Temp Dewpoint Dewpoint Depression Visibility Wind Speed Wind Dir Waves Ship Positions

RoSS Sea

Owner: Kirby Inland Marine, LP, Houston, TX. More information available from US FCC via Universal Licensing System and Coast Guard Vessel Documentation Center.

Last reported at 2016-Jun-25 14:32 UTC. Time now 2016-Jun-26 06:37 UTC.
Position N 40°38' W 074°12'.

Length 30 m; draft 5 m.

Type: Towing. MMSI: 367334360.

Date/timePositionNaut miles runAvg speedWind from/ knotsBaromVisibWave heightAir tempDewpointWater temp
2016-Jun-25 14:32N 40°38' W 074°12'4 4.2
2016-Jun-25 13:32N 40°39' W 074°06'2 2.2
2016-Jun-25 12:34N 40°38' W 074°04'0 0.1
2016-Jun-25 11:34N 40°38' W 074°04'0 0.0
2016-Jun-25 10:34N 40°38' W 074°04'2 1.6
2016-Jun-25 09:34N 40°40' W 074°04'0 0.4
2016-Jun-25 08:34N 40°40' W 074°04'0 0.0
2016-Jun-25 07:34N 40°40' W 074°04'0 0.0
2016-Jun-25 06:33N 40°40' W 074°04'0 0.0
2016-Jun-25 05:34N 40°40' W 074°04'0 0.0
2016-Jun-25 04:33N 40°40' W 074°04'0 0.0
2016-Jun-25 03:34N 40°40' W 074°04'2 1.7
2016-Jun-25 02:33N 40°38' W 074°04'1 1.2
2016-Jun-25 01:34N 40°39' W 074°04'4 4.3
2016-Jun-25 00:33N 40°38' W 074°10'0 0.0
2016-Jun-24 23:20N 40°38' W 074°10'0 0.0
2016-Jun-24 22:32N 40°38' W 074°10'0 0.0
2016-Jun-24 21:33N 40°38' W 074°10'3 2.6
2016-Jun-24 20:30N 40°39' W 074°06'7 7.8
2016-Jun-24 19:33N 40°45' W 074°01'3 0.8
2016-Jun-24 16:18N 40°47' W 073°59'811.2
2016-Jun-24 15:33N 40°40' W 074°03'5 5.0
2016-Jun-24 14:34N 40°38' W 074°10'0 0.0
2016-Jun-24 13:34N 40°38' W 074°10'0 0.0
2016-Jun-24 12:33N 40°38' W 074°10'0 0.0
2016-Jun-24 11:33N 40°38' W 074°10'0 0.0
2016-Jun-24 10:33N 40°38' W 074°10'0 0.4
2016-Jun-24 09:27N 40°39' W 074°10'0 0.0
2016-Jun-24 07:33N 40°39' W 074°10'0 0.0
2016-Jun-23 22:18N 40°39' W 074°10'0 0.3
2016-Jun-23 20:30N 40°39' W 074°10'0 0.5
2016-Jun-23 19:34N 40°39' W 074°10'0 0.0
2016-Jun-23 18:33N 40°39' W 074°10'0 0.0
2016-Jun-23 17:33N 40°39' W 074°10'0 0.0
2016-Jun-23 16:34N 40°39' W 074°10'0 0.0
2016-Jun-23 05:07N 40°39' W 074°10'0 0.0
2016-Jun-23 01:06N 40°39' W 074°10'0 0.4
2016-Jun-23 00:32N 40°38' W 074°10'4 0.2
2016-Jun-22 01:32N 40°39' W 074°04'5 0.3
2016-Jun-21 10:16N 40°39' W 074°10'0 0.1
2016-Jun-21 06:33N 40°39' W 074°10'4 1.8
2016-Jun-21 04:33N 40°39' W 074°05'1 0.9
2016-Jun-21 03:33N 40°40' W 074°04'3 2.9
2016-Jun-21 02:33N 40°39' W 074°08'1 1.4
2016-Jun-21 01:33N 40°39' W 074°10'0 0.0
2016-Jun-21 00:33N 40°39' W 074°10'0 0.0
2016-Jun-20 23:33N 40°39' W 074°10'0 0.0
2016-Jun-20 22:33N 40°39' W 074°10'0 0.0
2016-Jun-20 21:33N 40°39' W 074°10'1 0.2
2016-Jun-20 14:34N 40°39' W 074°08'3 2.8
2016-Jun-20 13:30N 40°39' W 074°04'4 4.4
2016-Jun-20 12:30N 40°38' W 074°10'0 0.0
2016-Jun-20 11:33N 40°38' W 074°10'0 0.0
2016-Jun-20 10:30N 40°38' W 074°10'0 0.0
2016-Jun-20 09:33N 40°38' W 074°10'0 0.0
2016-Jun-20 08:33N 40°38' W 074°10'0 0.0
2016-Jun-20 07:33N 40°38' W 074°10'0 0.0
2016-Jun-20 06:33N 40°38' W 074°10'0 0.0
2016-Jun-20 05:33N 40°38' W 074°10'0 0.0
2016-Jun-20 04:33N 40°38' W 074°10'0 0.0
2016-Jun-20 03:33N 40°38' W 074°10'0 0.0
2016-Jun-20 02:33N 40°38' W 074°10'0 0.0
2016-Jun-20 01:30N 40°38' W 074°10'0 0.0
2016-Jun-20 00:33N 40°38' W 074°10'0 0.0
2016-Jun-19 23:33N 40°38' W 074°10'0 0.0
2016-Jun-19 22:33N 40°38' W 074°10'1 0.5
2016-Jun-19 21:07N 40°38' W 074°09'5 8.0
2016-Jun-19 20:34N 40°39' W 074°03'1 0.6
2016-Jun-19 19:29N 40°40' W 074°02'0 0.0
2016-Jun-19 18:32N 40°40' W 074°02'0 0.0
2016-Jun-19 17:32N 40°40' W 074°02'0 0.0
2016-Jun-19 16:32N 40°40' W 074°02'0 0.0
2016-Jun-19 15:32N 40°40' W 074°02'0 0.1
2016-Jun-19 14:26N 40°40' W 074°02'0 0.0
2016-Jun-19 13:29N 40°40' W 074°02'0 0.0
2016-Jun-19 12:29N 40°40' W 074°02'0 0.0
2016-Jun-19 11:33N 40°40' W 074°02'0 0.0
2016-Jun-19 10:33N 40°40' W 074°02'0 0.0
2016-Jun-19 09:33N 40°40' W 074°02'0 0.1
2016-Jun-19 08:33N 40°40' W 074°02'0 0.0
2016-Jun-19 07:33N 40°40' W 074°02'0 0.0
2016-Jun-19 06:33N 40°40' W 074°02'0 0.0
2016-Jun-19 05:33N 40°40' W 074°02'0 0.0
2016-Jun-19 04:33N 40°40' W 074°02'1 0.6
2016-Jun-19 03:33N 40°39' W 074°03'7 6.5
2016-Jun-19 02:32N 40°38' W 074°12'0 0.0
2016-Jun-18 18:21N 40°38' W 074°12'0 0.0
2016-Jun-18 16:22N 40°38' W 074°12'0 0.0
2016-Jun-18 12:33N 40°38' W 074°12'0 0.0
2016-Jun-18 11:33N 40°38' W 074°12'0 0.0
2016-Jun-18 10:33N 40°38' W 074°12'0 0.0
2016-Jun-18 09:33N 40°38' W 074°12'0 0.0
2016-Jun-18 08:33N 40°38' W 074°12'2 1.7
2016-Jun-18 07:31N 40°39' W 074°10'7 7.6
2016-Jun-18 06:33N 40°41' W 074°01'2 1.9
2016-Jun-18 05:33N 40°42' W 073°58'0 0.0
2016-Jun-18 04:33N 40°42' W 073°58'0 0.0
2016-Jun-18 03:33N 40°42' W 073°58'0 0.0
2016-Jun-18 02:33N 40°42' W 073°58'0 0.0
2016-Jun-18 01:33N 40°42' W 073°58'0 0.0
2016-Jun-18 00:33N 40°42' W 073°58'0 0.0
2016-Jun-17 23:33N 40°42' W 073°58'0 0.0
2016-Jun-17 22:33N 40°42' W 073°58'6 5.7
2016-Jun-17 21:33N 40°39' W 074°05'4 3.9
2016-Jun-17 20:33N 40°38' W 074°10'0 0.0
2016-Jun-17 19:30N 40°38' W 074°10'0 0.0
2016-Jun-17 18:33N 40°38' W 074°10'0 0.0
2016-Jun-17 17:33N 40°38' W 074°10'0 0.0
2016-Jun-17 16:33N 40°38' W 074°10'4 3.8
2016-Jun-17 15:33N 40°39' W 074°05'5 5.3
2016-Jun-17 14:33N 40°38' W 074°12'4 4.0
2016-Jun-17 13:34N 40°39' W 074°07'0 0.2
2016-Jun-17 12:33N 40°39' W 074°07'0 0.0
2016-Jun-17 11:33N 40°39' W 074°07'0 0.0
2016-Jun-17 10:33N 40°39' W 074°07'0 0.0
2016-Jun-17 09:33N 40°39' W 074°07'2 0.3
2016-Jun-17 01:31N 40°38' W 074°10'0 0.4
2016-Jun-17 00:30N 40°39' W 074°10'5 5.3
2016-Jun-16 23:34N 40°38' W 074°04'0 0.2
2016-Jun-16 22:33N 40°38' W 074°04'0 0.1
2016-Jun-16 21:33N 40°38' W 074°04'5 4.7
2016-Jun-16 20:33N 40°38' W 074°10'0 0.0
2016-Jun-16 19:33N 40°38' W 074°10'0 0.0
2016-Jun-16 18:33N 40°38' W 074°10'0 0.0
2016-Jun-16 17:33N 40°38' W 074°10'0 0.0
2016-Jun-16 16:34N 40°38' W 074°10'1 1.4
2016-Jun-16 15:33N 40°39' W 074°08'3 3.3
2016-Jun-16 14:34N 40°38' W 074°04'1 1.3
2016-Jun-16 13:33N 40°39' W 074°04'2 1.7
2016-Jun-16 12:33N 40°38' W 074°04'1 0.5
2016-Jun-16 11:33N 40°38' W 074°04'0 0.0
2016-Jun-16 10:33N 40°38' W 074°04'0 0.1
2016-Jun-16 09:34N 40°38' W 074°03'0 0.2
2016-Jun-16 08:33N 40°38' W 074°04'0 0.1
2016-Jun-16 07:33N 40°38' W 074°04'1 1.3
2016-Jun-16 06:33N 40°39' W 074°04'2 2.1
2016-Jun-16 05:32N 40°39' W 074°07'0 0.0
2016-Jun-16 04:32N 40°39' W 074°07'0 0.0
2016-Jun-16 03:33N 40°39' W 074°07'0 0.0
2016-Jun-16 02:33N 40°39' W 074°07'0 0.0
2016-Jun-16 01:33N 40°39' W 074°07'2 2.1
2016-Jun-16 00:33N 40°38' W 074°10'0 0.1
2016-Jun-15 23:33N 40°38' W 074°10'0 0.0
2016-Jun-15 22:33N 40°38' W 074°10'0 0.0
2016-Jun-15 21:34N 40°39' W 074°10'0 0.0
2016-Jun-15 20:33N 40°38' W 074°10'0 0.0
2016-Jun-15 19:33N 40°38' W 074°10'0 0.0
2016-Jun-15 18:33N 40°38' W 074°10'0 0.0
2016-Jun-15 17:33N 40°38' W 074°10'0 0.0
2016-Jun-15 16:33N 40°38' W 074°10'0 0.0
2016-Jun-15 15:32N 40°38' W 074°10'0 0.0
2016-Jun-15 14:33N 40°38' W 074°10'  
Track history (hours):
 
Tides and Currents Weather Stations Pressure Air Temp Water Temp Dewpoint Dewpoint Depression Visibility Wind Speed Wind Dir Waves Ship Positions

RoSS Sea

Owner: Kirby Inland Marine, LP, Houston, TX. More information available from US FCC via Universal Licensing System and Coast Guard Vessel Documentation Center.

Last reported at 2016-Jun-25 14:32 UTC. Time now 2016-Jun-26 06:37 UTC.
Position N 40°38' W 074°12'.

Length 30 m; draft 5 m.

Type: Towing. MMSI: 367334360.

Date/timePositionNaut miles runAvg speedWind from/ knotsBaromVisibWave heightAir tempDewpointWater temp
2016-Jun-25 14:32N 40°38' W 074°12'4 4.2
2016-Jun-25 13:32N 40°39' W 074°06'2 2.2
2016-Jun-25 12:34N 40°38' W 074°04'0 0.1
2016-Jun-25 11:34N 40°38' W 074°04'0 0.0
2016-Jun-25 10:34N 40°38' W 074°04'2 1.6
2016-Jun-25 09:34N 40°40' W 074°04'0 0.4
2016-Jun-25 08:34N 40°40' W 074°04'0 0.0
2016-Jun-25 07:34N 40°40' W 074°04'0 0.0
2016-Jun-25 06:33N 40°40' W 074°04'0 0.0
2016-Jun-25 05:34N 40°40' W 074°04'0 0.0
2016-Jun-25 04:33N 40°40' W 074°04'0 0.0
2016-Jun-25 03:34N 40°40' W 074°04'2 1.7
2016-Jun-25 02:33N 40°38' W 074°04'1 1.2
2016-Jun-25 01:34N 40°39' W 074°04'4 4.3
2016-Jun-25 00:33N 40°38' W 074°10'0 0.0
2016-Jun-24 23:20N 40°38' W 074°10'0 0.0
2016-Jun-24 22:32N 40°38' W 074°10'0 0.0
2016-Jun-24 21:33N 40°38' W 074°10'3 2.6
2016-Jun-24 20:30N 40°39' W 074°06'7 7.8
2016-Jun-24 19:33N 40°45' W 074°01'3 0.8
2016-Jun-24 16:18N 40°47' W 073°59'811.2
2016-Jun-24 15:33N 40°40' W 074°03'5 5.0
2016-Jun-24 14:34N 40°38' W 074°10'0 0.0
2016-Jun-24 13:34N 40°38' W 074°10'0 0.0
2016-Jun-24 12:33N 40°38' W 074°10'0 0.0
2016-Jun-24 11:33N 40°38' W 074°10'0 0.0
2016-Jun-24 10:33N 40°38' W 074°10'0 0.4
2016-Jun-24 09:27N 40°39' W 074°10'0 0.0
2016-Jun-24 07:33N 40°39' W 074°10'0 0.0
2016-Jun-23 22:18N 40°39' W 074°10'0 0.3
2016-Jun-23 20:30N 40°39' W 074°10'0 0.5
2016-Jun-23 19:34N 40°39' W 074°10'0 0.0
2016-Jun-23 18:33N 40°39' W 074°10'0 0.0
2016-Jun-23 17:33N 40°39' W 074°10'0 0.0
2016-Jun-23 16:34N 40°39' W 074°10'0 0.0
2016-Jun-23 05:07N 40°39' W 074°10'0 0.0
2016-Jun-23 01:06N 40°39' W 074°10'0 0.4
2016-Jun-23 00:32N 40°38' W 074°10'4 0.2
2016-Jun-22 01:32N 40°39' W 074°04'5 0.3
2016-Jun-21 10:16N 40°39' W 074°10'0 0.1
2016-Jun-21 06:33N 40°39' W 074°10'4 1.8
2016-Jun-21 04:33N 40°39' W 074°05'1 0.9
2016-Jun-21 03:33N 40°40' W 074°04'3 2.9
2016-Jun-21 02:33N 40°39' W 074°08'1 1.4
2016-Jun-21 01:33N 40°39' W 074°10'0 0.0
2016-Jun-21 00:33N 40°39' W 074°10'0 0.0
2016-Jun-20 23:33N 40°39' W 074°10'0 0.0
2016-Jun-20 22:33N 40°39' W 074°10'0 0.0
2016-Jun-20 21:33N 40°39' W 074°10'1 0.2
2016-Jun-20 14:34N 40°39' W 074°08'3 2.8
2016-Jun-20 13:30N 40°39' W 074°04'4 4.4
2016-Jun-20 12:30N 40°38' W 074°10'0 0.0
2016-Jun-20 11:33N 40°38' W 074°10'0 0.0
2016-Jun-20 10:30N 40°38' W 074°10'0 0.0
2016-Jun-20 09:33N 40°38' W 074°10'0 0.0
2016-Jun-20 08:33N 40°38' W 074°10'0 0.0
2016-Jun-20 07:33N 40°38' W 074°10'0 0.0
2016-Jun-20 06:33N 40°38' W 074°10'0 0.0
2016-Jun-20 05:33N 40°38' W 074°10'0 0.0
2016-Jun-20 04:33N 40°38' W 074°10'0 0.0
2016-Jun-20 03:33N 40°38' W 074°10'0 0.0
2016-Jun-20 02:33N 40°38' W 074°10'0 0.0
2016-Jun-20 01:30N 40°38' W 074°10'0 0.0
2016-Jun-20 00:33N 40°38' W 074°10'0 0.0
2016-Jun-19 23:33N 40°38' W 074°10'0 0.0
2016-Jun-19 22:33N 40°38' W 074°10'1 0.5
2016-Jun-19 21:07N 40°38' W 074°09'5 8.0
2016-Jun-19 20:34N 40°39' W 074°03'1 0.6
2016-Jun-19 19:29N 40°40' W 074°02'0 0.0
2016-Jun-19 18:32N 40°40' W 074°02'0 0.0
2016-Jun-19 17:32N 40°40' W 074°02'0 0.0
2016-Jun-19 16:32N 40°40' W 074°02'0 0.0
2016-Jun-19 15:32N 40°40' W 074°02'0 0.1
2016-Jun-19 14:26N 40°40' W 074°02'0 0.0
2016-Jun-19 13:29N 40°40' W 074°02'0 0.0
2016-Jun-19 12:29N 40°40' W 074°02'0 0.0
2016-Jun-19 11:33N 40°40' W 074°02'0 0.0
2016-Jun-19 10:33N 40°40' W 074°02'0 0.0
2016-Jun-19 09:33N 40°40' W 074°02'0 0.1
2016-Jun-19 08:33N 40°40' W 074°02'0 0.0
2016-Jun-19 07:33N 40°40' W 074°02'0 0.0
2016-Jun-19 06:33N 40°40' W 074°02'0 0.0
2016-Jun-19 05:33N 40°40' W 074°02'0 0.0
2016-Jun-19 04:33N 40°40' W 074°02'1 0.6
2016-Jun-19 03:33N 40°39' W 074°03'7 6.5
2016-Jun-19 02:32N 40°38' W 074°12'0 0.0
2016-Jun-18 18:21N 40°38' W 074°12'0 0.0
2016-Jun-18 16:22N 40°38' W 074°12'0 0.0
2016-Jun-18 12:33N 40°38' W 074°12'0 0.0
2016-Jun-18 11:33N 40°38' W 074°12'0 0.0
2016-Jun-18 10:33N 40°38' W 074°12'0 0.0
2016-Jun-18 09:33N 40°38' W 074°12'0 0.0
2016-Jun-18 08:33N 40°38' W 074°12'2 1.7
2016-Jun-18 07:31N 40°39' W 074°10'7 7.6
2016-Jun-18 06:33N 40°41' W 074°01'2 1.9
2016-Jun-18 05:33N 40°42' W 073°58'0 0.0
2016-Jun-18 04:33N 40°42' W 073°58'0 0.0
2016-Jun-18 03:33N 40°42' W 073°58'0 0.0
2016-Jun-18 02:33N 40°42' W 073°58'0 0.0
2016-Jun-18 01:33N 40°42' W 073°58'0 0.0
2016-Jun-18 00:33N 40°42' W 073°58'0 0.0
2016-Jun-17 23:33N 40°42' W 073°58'0 0.0
2016-Jun-17 22:33N 40°42' W 073°58'6 5.7
2016-Jun-17 21:33N 40°39' W 074°05'4 3.9
2016-Jun-17 20:33N 40°38' W 074°10'0 0.0
2016-Jun-17 19:30N 40°38' W 074°10'0 0.0
2016-Jun-17 18:33N 40°38' W 074°10'0 0.0
2016-Jun-17 17:33N 40°38' W 074°10'0 0.0
2016-Jun-17 16:33N 40°38' W 074°10'4 3.8
2016-Jun-17 15:33N 40°39' W 074°05'5 5.3
2016-Jun-17 14:33N 40°38' W 074°12'4 4.0
2016-Jun-17 13:34N 40°39' W 074°07'0 0.2
2016-Jun-17 12:33N 40°39' W 074°07'0 0.0
2016-Jun-17 11:33N 40°39' W 074°07'0 0.0
2016-Jun-17 10:33N 40°39' W 074°07'0 0.0
2016-Jun-17 09:33N 40°39' W 074°07'2 0.3
2016-Jun-17 01:31N 40°38' W 074°10'0 0.4
2016-Jun-17 00:30N 40°39' W 074°10'5 5.3
2016-Jun-16 23:34N 40°38' W 074°04'0 0.2
2016-Jun-16 22:33N 40°38' W 074°04'0 0.1
2016-Jun-16 21:33N 40°38' W 074°04'5 4.7
2016-Jun-16 20:33N 40°38' W 074°10'0 0.0
2016-Jun-16 19:33N 40°38' W 074°10'0 0.0
2016-Jun-16 18:33N 40°38' W 074°10'0 0.0
2016-Jun-16 17:33N 40°38' W 074°10'0 0.0
2016-Jun-16 16:34N 40°38' W 074°10'1 1.4
2016-Jun-16 15:33N 40°39' W 074°08'3 3.3
2016-Jun-16 14:34N 40°38' W 074°04'1 1.3
2016-Jun-16 13:33N 40°39' W 074°04'2 1.7
2016-Jun-16 12:33N 40°38' W 074°04'1 0.5
2016-Jun-16 11:33N 40°38' W 074°04'0 0.0
2016-Jun-16 10:33N 40°38' W 074°04'0 0.1
2016-Jun-16 09:34N 40°38' W 074°03'0 0.2
2016-Jun-16 08:33N 40°38' W 074°04'0 0.1
2016-Jun-16 07:33N 40°38' W 074°04'1 1.3
2016-Jun-16 06:33N 40°39' W 074°04'2 2.1
2016-Jun-16 05:32N 40°39' W 074°07'0 0.0
2016-Jun-16 04:32N 40°39' W 074°07'0 0.0
2016-Jun-16 03:33N 40°39' W 074°07'0 0.0
2016-Jun-16 02:33N 40°39' W 074°07'0 0.0
2016-Jun-16 01:33N 40°39' W 074°07'2 2.1
2016-Jun-16 00:33N 40°38' W 074°10'0 0.1
2016-Jun-15 23:33N 40°38' W 074°10'0 0.0
2016-Jun-15 22:33N 40°38' W 074°10'0 0.0
2016-Jun-15 21:34N 40°39' W 074°10'0 0.0
2016-Jun-15 20:33N 40°38' W 074°10'0 0.0
2016-Jun-15 19:33N 40°38' W 074°10'0 0.0
2016-Jun-15 18:33N 40°38' W 074°10'0 0.0
2016-Jun-15 17:33N 40°38' W 074°10'0 0.0
2016-Jun-15 16:33N 40°38' W 074°10'0 0.0
2016-Jun-15 15:32N 40°38' W 074°10'0 0.0
2016-Jun-15 14:33N 40°38' W 074°10'  

Dump ship's entire track history